createdAt,value
2022-12-18T00:00:53.810Z,12.48
2022-12-18T00:03:27.809Z,11.55
2022-12-18T00:06:12.977Z,7.50
2022-12-18T00:08:42.811Z,7.30
2022-12-18T00:11:15.791Z,7.68
2022-12-18T00:13:51.363Z,6.38
2022-12-18T00:16:26.302Z,9.65
2022-12-18T00:19:01.081Z,6.25
2022-12-18T00:21:36.966Z,7.85
2022-12-18T00:24:05.931Z,11.47
2022-12-18T00:26:38.724Z,16.25
2022-12-18T00:29:15.940Z,18.40
2022-12-18T00:31:45.822Z,50.53
2022-12-18T00:34:15.439Z,28.08
2022-12-18T00:36:49.253Z,11.45
2022-12-18T00:39:18.015Z,27.33
2022-12-18T00:42:19.059Z,26.83
2022-12-18T00:44:54.181Z,9.55
2022-12-18T00:47:28.565Z,14.43
2022-12-18T00:49:57.318Z,9.07
2022-12-18T00:52:28.997Z,11.63
2022-12-18T00:55:01.791Z,9.20
2022-12-18T00:57:35.598Z,7.70
2022-12-18T01:00:10.067Z,6.78
2022-12-18T01:02:38.942Z,10.57
2022-12-18T01:05:10.437Z,18.40
2022-12-18T01:07:39.525Z,11.45
2022-12-18T01:10:14.541Z,8.98
2022-12-18T01:12:43.430Z,7.80
2022-12-18T01:15:14.569Z,8.10
2022-12-18T01:17:43.727Z,7.47
2022-12-18T01:20:14.832Z,13.32
2022-12-18T01:22:46.254Z,7.93
2022-12-18T01:25:19.333Z,9.88
2022-12-18T01:27:51.084Z,7.32
2022-12-18T01:30:22.445Z,11.23
2022-12-18T01:32:51.240Z,15.95
2022-12-18T01:35:19.983Z,14.07
2022-12-18T01:37:48.706Z,10.32
2022-12-18T01:40:17.438Z,18.70
2022-12-18T01:42:48.445Z,21.20
2022-12-18T01:45:33.614Z,14.85
2022-12-18T01:48:12.736Z,16.95
2022-12-18T01:50:44.930Z,9.30
2022-12-18T01:53:21.134Z,13.88
2022-12-18T01:55:58.841Z,11.32
2022-12-18T01:58:42.043Z,9.73
2022-12-18T02:01:13.989Z,10.77
2022-12-18T02:03:46.696Z,8.32
2022-12-18T02:06:35.445Z,13.27
2022-12-18T02:09:20.665Z,12.93
2022-12-18T02:11:56.709Z,10.52
2022-12-18T02:15:12.959Z,12.15
2022-12-18T02:17:51.169Z,12.40
2022-12-18T02:20:22.713Z,25.95
2022-12-18T02:23:19.939Z,24.20
2022-12-18T02:26:11.370Z,27.95
2022-12-18T02:29:15.585Z,39.17
2022-12-18T02:31:57.833Z,14.53
2022-12-18T02:34:34.224Z,13.85
2022-12-18T02:37:07.832Z,10.50
2022-12-18T02:39:40.235Z,8.07
2022-12-18T02:42:09.761Z,8.27
2022-12-18T02:44:50.191Z,12.23
2022-12-18T02:47:26.102Z,13.18
2022-12-18T02:50:11.977Z,20.33
2022-12-18T02:52:58.073Z,18.83
2022-12-18T02:56:08.374Z,34.35
2022-12-18T02:58:55.214Z,24.00
2022-12-18T04:28:41.874Z,12.95
2022-12-18T04:31:16.038Z,7.03
2022-12-18T04:33:48.863Z,10.30
2022-12-18T04:36:23.818Z,12.00
2022-12-18T04:38:53.212Z,7.47
2022-12-18T04:41:25.739Z,6.05
2022-12-18T04:44:04.962Z,5.32
2022-12-18T04:46:34.221Z,4.10
2022-12-18T04:49:03.156Z,3.15
2022-12-18T04:51:32.156Z,4.90
2022-12-18T04:54:01.647Z,6.07
2022-12-18T04:56:35.806Z,3.40
2022-12-18T04:59:05.336Z,5.97
2022-12-18T05:01:37.353Z,3.83
2022-12-18T05:04:09.664Z,4.32
2022-12-18T05:06:41.765Z,6.22
2022-12-18T05:09:13.337Z,5.82
2022-12-18T05:11:42.217Z,3.95
2022-12-18T05:14:19.159Z,3.63
2022-12-18T05:16:50.549Z,3.20
2022-12-18T05:19:20.165Z,4.35
2022-12-18T05:21:53.033Z,3.60
2022-12-18T05:24:21.801Z,3.95
2022-12-18T05:26:56.910Z,6.20
2022-12-18T05:29:25.843Z,3.85
2022-12-18T05:31:54.761Z,4.88
2022-12-18T05:34:23.567Z,6.05
2022-12-18T05:36:52.198Z,5.03
2022-12-18T05:39:31.094Z,4.63
2022-12-18T05:42:08.707Z,3.35
2022-12-18T05:44:37.680Z,6.68
2022-12-18T05:47:06.468Z,6.10
2022-12-18T05:49:38.241Z,4.07
2022-12-18T05:52:06.907Z,3.55
2022-12-18T05:54:35.695Z,4.13
2022-12-18T05:57:10.045Z,3.75
2022-12-18T05:59:38.793Z,5.82
2022-12-18T06:02:14.435Z,5.03
2022-12-18T06:04:49.399Z,6.95
2022-12-18T06:07:19.352Z,5.20
2022-12-18T06:09:50.234Z,3.85
2022-12-18T06:12:24.427Z,4.45
2022-12-18T06:14:53.127Z,3.75
2022-12-18T06:17:21.895Z,6.75
2022-12-18T06:19:53.475Z,4.35
2022-12-18T06:22:22.262Z,6.10
2022-12-18T06:24:53.126Z,4.00
2022-12-18T06:27:22.643Z,4.05
2022-12-18T06:29:51.309Z,5.40
2022-12-18T06:32:23.305Z,5.88
2022-12-18T06:34:55.592Z,4.88
2022-12-18T06:37:27.850Z,4.47
2022-12-18T06:39:58.179Z,6.65
2022-12-18T06:42:30.919Z,6.72
2022-12-18T06:44:59.827Z,5.90
2022-12-18T06:47:28.432Z,4.50
2022-12-18T06:49:57.167Z,3.45
2022-12-18T06:52:25.827Z,4.95
2022-12-18T06:54:57.583Z,3.67
2022-12-18T06:57:29.358Z,3.88
2022-12-18T07:00:00.543Z,5.82
2022-12-18T07:02:32.474Z,5.75
2022-12-18T07:05:10.286Z,4.38
2022-12-18T07:07:39.807Z,5.55
2022-12-18T07:10:19.604Z,4.97
2022-12-18T07:12:48.515Z,3.63
2022-12-18T07:15:17.281Z,5.78
2022-12-18T07:17:45.971Z,3.22
2022-12-18T07:20:14.572Z,3.50
2022-12-18T07:22:45.795Z,4.25
2022-12-18T07:25:14.562Z,3.67
2022-12-18T07:27:43.198Z,2.92
2022-12-18T07:30:17.135Z,6.20
2022-12-18T07:32:49.131Z,4.28
2022-12-18T07:35:23.375Z,2.80
2022-12-18T07:37:53.837Z,3.30
2022-12-18T07:40:26.410Z,4.88
2022-12-18T07:42:55.130Z,4.80
2022-12-18T07:45:26.189Z,3.80
2022-12-18T07:47:57.220Z,3.50
2022-12-18T07:50:29.412Z,3.80
2022-12-18T07:53:05.190Z,5.47
2022-12-18T07:56:05.326Z,6.03
2022-12-18T07:58:28.965Z,2.20
2022-12-18T08:01:09.255Z,3.45
2022-12-18T08:03:45.627Z,4.70
2022-12-18T08:06:14.601Z,2.25
2022-12-18T08:08:48.601Z,2.90
2022-12-18T08:11:17.669Z,3.00
2022-12-18T08:13:46.278Z,3.05
2022-12-18T08:16:18.392Z,1.95
2022-12-18T08:18:51.542Z,3.20
2022-12-18T08:21:29.139Z,2.50
2022-12-18T08:24:01.143Z,2.80
2022-12-18T08:26:40.805Z,3.17
2022-12-18T08:29:10.633Z,1.80
2022-12-18T08:31:39.455Z,3.22
2022-12-18T08:34:10.811Z,1.88
2022-12-18T08:36:41.181Z,1.95
2022-12-18T08:39:09.962Z,3.88
2022-12-18T08:41:40.234Z,3.20
2022-12-18T08:44:28.367Z,5.15
2022-12-18T08:46:57.232Z,4.40
2022-12-18T08:49:30.902Z,6.88
2022-12-18T08:51:59.646Z,4.35
2022-12-18T08:54:32.052Z,5.18
2022-12-18T08:57:00.756Z,3.47
2022-12-18T08:59:34.693Z,3.30
2022-12-18T09:02:06.317Z,3.78
2022-12-18T09:07:27.575Z,5.13
2022-12-18T09:09:58.682Z,2.72
2022-12-18T09:12:27.728Z,5.25
2022-12-18T09:15:02.449Z,2.47
2022-12-18T09:17:31.336Z,2.88
2022-12-18T09:20:00.807Z,1.67
2022-12-18T09:22:29.518Z,3.95
2022-12-18T09:24:58.142Z,3.35
2022-12-18T09:27:27.028Z,1.73
2022-12-18T09:29:55.711Z,1.95
2022-12-18T09:32:27.502Z,2.60
2022-12-18T09:34:56.623Z,3.58
2022-12-18T09:37:26.582Z,2.92
2022-12-18T09:39:55.351Z,7.03
2022-12-18T09:42:27.376Z,2.78
2022-12-18T09:44:56.815Z,6.55
2022-12-18T09:47:25.470Z,5.28
2022-12-18T09:50:19.657Z,3.00
2022-12-18T09:52:54.117Z,3.53
2022-12-18T09:55:47.662Z,5.63
2022-12-18T09:58:22.674Z,4.15
2022-12-18T10:00:55.009Z,4.20
2022-12-18T10:03:24.327Z,2.58
2022-12-18T10:06:11.203Z,2.70
2022-12-18T10:09:19.694Z,3.45
2022-12-18T10:15:06.940Z,2.92
2022-12-18T10:17:58.519Z,3.08
2022-12-18T10:20:39.911Z,8.98
2022-12-18T10:23:27.210Z,2.40
2022-12-18T10:28:43.118Z,1.67
2022-12-18T10:31:24.538Z,1.60
2022-12-18T10:33:57.005Z,2.45
2022-12-18T10:36:32.968Z,2.22
2022-12-18T10:39:26.622Z,2.63
2022-12-18T10:42:14.680Z,2.72
2022-12-18T10:44:49.437Z,6.28
2022-12-18T10:47:23.611Z,2.60
2022-12-18T10:50:01.807Z,2.53
2022-12-18T10:52:30.660Z,2.53
2022-12-18T10:55:17.992Z,4.75
2022-12-18T10:57:46.933Z,6.32
2022-12-18T11:00:28.959Z,2.15
2022-12-18T11:02:58.703Z,3.33
2022-12-18T11:05:38.675Z,4.65
2022-12-18T11:08:07.761Z,4.93
2022-12-18T11:10:42.647Z,2.22
2022-12-18T11:13:26.817Z,3.33
2022-12-18T11:15:58.639Z,3.58
2022-12-18T11:18:34.059Z,2.20
2022-12-18T11:21:13.460Z,3.97
2022-12-18T11:23:56.423Z,2.47
2022-12-18T11:26:38.959Z,3.88
2022-12-18T11:29:17.607Z,3.00
2022-12-18T11:31:50.254Z,1.83
2022-12-18T11:34:29.077Z,1.33
2022-12-18T11:37:04.901Z,2.53
2022-12-18T11:39:59.500Z,2.40
2022-12-18T11:43:18.491Z,3.05
2022-12-18T11:46:19.344Z,2.88
2022-12-18T11:48:52.440Z,2.28
2022-12-18T11:51:37.306Z,2.42
2022-12-18T11:54:16.671Z,4.20
2022-12-18T11:56:58.748Z,2.90
2022-12-18T11:59:49.570Z,2.70
2022-12-18T12:02:54.796Z,4.18
2022-12-18T12:05:53.601Z,2.28
2022-12-18T12:11:14.899Z,3.15
2022-12-18T12:14:05.780Z,8.07
2022-12-18T12:17:25.703Z,2.35
2022-12-18T12:20:14.826Z,1.58
2022-12-18T12:22:53.923Z,1.75
2022-12-18T12:25:52.459Z,8.85
2022-12-18T12:28:48.376Z,7.00
2022-12-18T12:31:24.972Z,1.60
2022-12-18T12:34:15.053Z,2.03
2022-12-18T12:37:08.248Z,2.72
2022-12-18T12:39:40.113Z,2.90
2022-12-18T12:43:01.660Z,2.03
2022-12-18T12:45:44.016Z,1.85
2022-12-18T12:48:29.460Z,1.95
2022-12-18T12:51:00.872Z,2.83
2022-12-18T12:53:40.892Z,1.55
2022-12-18T12:56:16.987Z,3.90
2022-12-18T12:59:05.390Z,4.60
2022-12-18T13:01:43.813Z,4.28
2022-12-18T13:04:48.078Z,3.25
2022-12-18T13:07:26.631Z,2.95
2022-12-18T13:10:41.499Z,2.03
2022-12-18T13:13:14.633Z,2.22
2022-12-18T13:15:52.067Z,5.30
2022-12-18T13:18:30.510Z,4.55
2022-12-18T13:21:03.703Z,3.78
2022-12-18T13:23:42.870Z,2.15
2022-12-18T13:26:32.076Z,2.33
2022-12-18T13:29:06.919Z,3.15
2022-12-18T13:31:59.932Z,2.47
2022-12-18T13:34:32.910Z,3.20
2022-12-18T13:37:43.750Z,3.45
2022-12-18T13:40:49.668Z,2.20
2022-12-18T13:43:21.593Z,2.60
2022-12-18T13:46:23.247Z,1.30
2022-12-18T13:49:08.260Z,1.60
2022-12-18T13:51:48.608Z,5.00
2022-12-18T13:54:44.701Z,1.50
2022-12-18T13:57:34.571Z,4.47
2022-12-18T14:00:29.561Z,3.75
2022-12-18T14:03:00.209Z,3.30
2022-12-18T14:05:39.054Z,5.55
2022-12-18T14:08:14.773Z,1.58
2022-12-18T14:10:49.929Z,2.75
2022-12-18T14:13:33.161Z,2.83
2022-12-18T14:16:10.092Z,2.20
2022-12-18T14:19:04.129Z,2.75
2022-12-18T14:21:40.836Z,1.90
2022-12-18T14:24:22.613Z,2.97
2022-12-18T14:26:56.055Z,1.70
2022-12-18T14:29:31.954Z,3.25
2022-12-18T14:32:19.912Z,2.40
2022-12-18T14:35:06.355Z,5.80
2022-12-18T14:37:35.120Z,2.73
2022-12-18T14:40:11.398Z,2.28
2022-12-18T14:42:41.034Z,1.30
2022-12-18T14:45:41.676Z,2.83
2022-12-18T14:48:23.451Z,3.85
2022-12-18T14:51:03.094Z,4.68
2022-12-18T14:53:50.507Z,1.58
2022-12-18T14:56:37.164Z,1.65
2022-12-18T14:59:24.864Z,4.93
2022-12-18T15:02:28.220Z,1.55
2022-12-18T15:05:21.874Z,2.72
2022-12-18T15:07:53.795Z,5.75
2022-12-18T15:10:27.822Z,2.05
2022-12-18T15:13:07.348Z,3.38
2022-12-18T15:15:37.671Z,2.35
2022-12-18T15:18:14.380Z,3.15
2022-12-18T15:20:49.839Z,1.40
2022-12-18T15:23:38.531Z,1.88
2022-12-18T15:26:10.408Z,3.05
2022-12-18T15:28:50.517Z,1.77
2022-12-18T15:31:30.404Z,3.10
2022-12-18T15:34:00.804Z,2.85
2022-12-18T15:36:32.690Z,1.88
2022-12-18T15:39:05.126Z,3.85
2022-12-18T15:41:37.036Z,2.90
2022-12-18T15:44:25.998Z,1.63
2022-12-18T15:46:57.783Z,4.25
2022-12-18T15:49:26.745Z,3.25
2022-12-18T15:52:01.913Z,4.15
2022-12-18T15:54:49.041Z,3.03
2022-12-18T15:57:26.496Z,2.75
2022-12-18T16:00:00.926Z,1.95
2022-12-18T16:02:32.917Z,3.00
2022-12-18T16:05:07.804Z,4.10
2022-12-18T16:07:36.790Z,3.80
2022-12-18T16:10:09.189Z,3.72
2022-12-18T16:12:38.398Z,1.67
2022-12-18T16:15:09.926Z,1.55
2022-12-18T16:17:41.618Z,3.03
2022-12-18T16:20:26.492Z,2.92
2022-12-18T16:22:55.232Z,3.15
2022-12-18T16:25:30.568Z,1.63
2022-12-18T16:28:01.645Z,2.70
2022-12-18T16:30:38.643Z,2.90
2022-12-18T16:33:07.864Z,3.35
2022-12-18T16:35:38.725Z,5.50
2022-12-18T16:38:07.483Z,3.30
2022-12-18T16:41:02.911Z,2.78
2022-12-18T16:43:34.363Z,1.60
2022-12-18T16:46:04.098Z,4.75
2022-12-18T16:48:35.932Z,2.97
2022-12-18T16:51:06.523Z,1.55
2022-12-18T16:53:35.273Z,2.00
2022-12-18T16:56:07.919Z,2.38
2022-12-18T16:58:38.923Z,2.97
2022-12-18T17:01:12.465Z,3.72
2022-12-18T17:03:42.336Z,3.25
2022-12-18T17:06:17.329Z,2.85
2022-12-18T17:08:55.876Z,2.30
2022-12-18T17:11:26.439Z,1.55
2022-12-18T17:13:59.927Z,1.05
2022-12-18T17:16:34.845Z,3.20
2022-12-18T17:19:05.579Z,2.08
2022-12-18T17:21:37.516Z,6.63
2022-12-18T17:24:07.204Z,3.22
2022-12-18T17:26:37.678Z,2.55
2022-12-18T17:29:07.079Z,0.98
2022-12-18T17:31:38.804Z,2.67
2022-12-18T17:34:27.182Z,3.15
2022-12-18T17:37:04.915Z,2.67
2022-12-18T17:39:34.470Z,2.60
2022-12-18T17:42:04.231Z,1.67
2022-12-18T17:44:35.142Z,4.25
2022-12-18T17:47:04.616Z,1.58
2022-12-18T17:49:33.501Z,2.25
2022-12-18T17:52:04.051Z,1.63
2022-12-18T17:54:33.893Z,1.48
2022-12-18T17:57:03.954Z,2.45
2022-12-18T17:59:32.982Z,1.67
2022-12-18T18:02:01.860Z,1.98
2022-12-18T18:04:31.928Z,3.15
2022-12-18T18:07:00.598Z,2.33
2022-12-18T18:09:37.758Z,1.30
2022-12-18T18:12:27.907Z,3.42
2022-12-18T18:15:02.128Z,1.45
2022-12-18T18:17:34.038Z,2.55
2022-12-18T18:20:12.314Z,2.00
2022-12-18T18:22:47.258Z,1.25
2022-12-18T18:25:16.254Z,3.30
2022-12-18T18:27:45.106Z,1.48
2022-12-18T18:30:16.405Z,1.33
2022-12-18T18:32:45.090Z,2.88
2022-12-18T18:35:30.943Z,1.27
2022-12-18T18:38:05.177Z,5.60
2022-12-18T18:40:40.688Z,3.75
2022-12-18T18:43:14.561Z,3.33
2022-12-18T18:45:45.006Z,4.25
2022-12-18T18:48:18.511Z,1.98
2022-12-18T18:51:00.450Z,1.00
2022-12-18T18:53:36.764Z,5.43
2022-12-18T18:56:45.580Z,2.63
2022-12-18T18:59:01.405Z,2.03
2022-12-18T19:01:35.641Z,2.85
2022-12-18T19:04:07.420Z,2.28
2022-12-18T19:06:36.464Z,2.35
2022-12-18T19:09:07.585Z,6.35
2022-12-18T19:11:54.824Z,2.47
2022-12-18T19:14:23.639Z,5.28
2022-12-18T19:16:58.744Z,3.42
2022-12-18T19:19:31.053Z,1.58
2022-12-18T19:22:11.681Z,2.45
2022-12-18T19:24:43.455Z,2.63
2022-12-18T19:27:21.486Z,2.90
2022-12-18T19:29:52.305Z,3.60
2022-12-18T19:32:21.279Z,3.20
2022-12-18T19:34:54.563Z,3.25
2022-12-18T19:37:25.996Z,2.95
2022-12-18T19:39:56.061Z,3.17
2022-12-18T19:42:33.362Z,6.70
2022-12-18T19:47:32.316Z,1.73
2022-12-18T19:50:08.441Z,1.92
2022-12-18T19:52:37.167Z,1.92
2022-12-18T19:55:06.390Z,3.42
2022-12-18T19:57:37.411Z,5.60
2022-12-18T20:00:06.801Z,3.15
2022-12-18T20:02:48.833Z,3.92
2022-12-18T20:05:18.227Z,4.07
2022-12-18T20:07:50.640Z,6.10
2022-12-18T20:10:23.039Z,2.08
2022-12-18T20:12:54.941Z,4.00
2022-12-18T20:15:27.774Z,12.27
2022-12-18T20:18:00.218Z,5.35
2022-12-18T20:20:31.979Z,8.90
2022-12-18T20:23:01.007Z,5.68
2022-12-18T20:25:29.610Z,2.35
2022-12-18T20:28:07.455Z,10.57
2022-12-18T20:30:37.500Z,4.78
2022-12-18T20:33:06.506Z,8.63
2022-12-18T20:35:38.038Z,6.97
2022-12-18T20:38:06.992Z,8.20
2022-12-18T20:40:42.745Z,5.85
2022-12-18T20:43:16.831Z,10.73
2022-12-18T20:45:46.047Z,5.80
2022-12-18T20:48:21.097Z,8.93
2022-12-18T20:51:09.119Z,4.55
2022-12-18T20:53:42.146Z,2.67
2022-12-18T20:56:21.569Z,8.23
2022-12-18T20:58:55.011Z,7.45
2022-12-18T21:01:27.907Z,8.07
2022-12-18T21:03:56.716Z,3.28
2022-12-18T21:06:28.343Z,4.60
2022-12-18T21:09:00.186Z,7.57
2022-12-18T21:11:52.491Z,13.80
2022-12-18T21:14:27.674Z,9.68
2022-12-18T21:17:03.685Z,7.90
2022-12-18T21:19:32.639Z,11.20
2022-12-18T21:22:04.623Z,2.72
2022-12-18T21:24:33.591Z,6.60
2022-12-18T21:27:04.691Z,4.13
2022-12-18T21:29:34.110Z,9.40
2022-12-18T21:32:04.398Z,2.60
2022-12-18T21:34:35.542Z,2.53
2022-12-18T21:37:08.361Z,3.30
2022-12-18T21:39:40.540Z,6.60
2022-12-18T21:42:30.896Z,6.85
2022-12-18T21:44:59.799Z,3.33
2022-12-18T21:47:28.455Z,6.97
2022-12-18T21:50:00.033Z,7.57
2022-12-18T21:52:32.582Z,3.80
2022-12-18T21:55:13.496Z,5.55
2022-12-18T21:57:42.408Z,3.40
2022-12-18T22:00:19.113Z,9.35
2022-12-18T22:03:16.907Z,8.07
2022-12-18T22:05:40.872Z,3.53
2022-12-18T22:08:12.748Z,6.65
2022-12-18T22:10:46.221Z,9.57
2022-12-18T22:13:18.121Z,5.20
2022-12-18T22:15:49.888Z,11.85
2022-12-18T22:18:22.157Z,4.45
2022-12-18T22:21:01.123Z,2.22
2022-12-18T22:23:32.424Z,3.72
2022-12-18T22:26:03.516Z,2.38
2022-12-18T22:28:54.978Z,3.08
2022-12-18T22:31:27.240Z,3.35
2022-12-18T22:33:57.365Z,3.70
2022-12-18T22:36:27.118Z,3.15
2022-12-18T22:38:56.046Z,2.85
2022-12-18T22:41:24.704Z,3.95
2022-12-18T22:43:53.404Z,5.63
2022-12-18T22:46:25.371Z,5.95
2022-12-18T22:49:03.472Z,2.67
2022-12-18T22:51:32.275Z,5.88
2022-12-18T22:54:01.575Z,3.50
2022-12-18T22:56:30.814Z,3.83
2022-12-18T22:59:01.716Z,4.45
2022-12-18T23:01:34.220Z,3.55
2022-12-18T23:04:13.521Z,2.53
2022-12-18T23:06:44.554Z,6.10
2022-12-18T23:09:19.318Z,3.53
2022-12-18T23:11:49.107Z,4.65
2022-12-18T23:14:23.995Z,5.45
2022-12-18T23:16:53.140Z,3.80
2022-12-18T23:19:23.611Z,5.85
2022-12-18T23:21:52.767Z,3.58
2022-12-18T23:24:30.841Z,4.97
2022-12-18T23:27:05.724Z,4.68
2022-12-18T23:29:42.874Z,3.95
2022-12-18T23:32:16.531Z,2.90
2022-12-18T23:34:47.952Z,2.28
2022-12-18T23:37:35.293Z,5.10
2022-12-18T23:40:05.746Z,3.08
2022-12-18T23:42:35.534Z,3.50
2022-12-18T23:45:15.825Z,4.15
2022-12-18T23:47:51.697Z,6.32
2022-12-18T23:50:30.164Z,2.92
2022-12-18T23:53:02.530Z,1.92
2022-12-18T23:55:43.941Z,2.97
2022-12-18T23:58:24.585Z,1.15
